sensor_id;sensor_type;location;lat;lon;timestamp;pressure;altitude;pressure_sealevel;temperature;humidity
12536;BME280;6334;48.696;2.114;2022-12-18T00:00:43;100530.53;;;-1.61;100.00
12536;BME280;6334;48.696;2.114;2022-12-18T00:03:14;100528.97;;;-2.02;100.00
12536;BME280;6334;48.696;2.114;2022-12-18T00:06:13;100536.00;;;-1.64;100.00
12536;BME280;6334;48.696;2.114;2022-12-18T00:11:23;100539.19;;;-1.53;100.00
12536;BME280;6334;48.696;2.114;2022-12-18T00:13:53;100542.34;;;-1.40;100.00
12536;BME280;6334;48.696;2.114;2022-12-18T00:16:24;100542.69;;;-1.82;100.00
12536;BME280;6334;48.696;2.114;2022-12-18T00:19:10;100327.81;;;-2.90;100.00
12536;BME280;6334;48.696;2.114;2022-12-18T00:21:41;100534.39;;;-1.61;100.00
12536;BME280;6334;48.696;2.114;2022-12-18T00:24:10;100549.06;;;-2.18;100.00
12536;BME280;6334;48.696;2.114;2022-12-18T00:26:43;100547.98;;;-1.46;100.00
12536;BME280;6334;48.696;2.114;2022-12-18T00:29:14;100553.58;;;-1.38;100.00
12536;BME280;6334;48.696;2.114;2022-12-18T00:31:44;100542.88;;;-1.88;100.00
12536;BME280;6334;48.696;2.114;2022-12-18T00:34:14;100546.60;;;-2.16;100.00
12536;BME280;6334;48.696;2.114;2022-12-18T00:36:48;100547.64;;;-1.55;100.00
12536;BME280;6334;48.696;2.114;2022-12-18T00:39:19;100544.33;;;-1.36;100.00
12536;BME280;6334;48.696;2.114;2022-12-18T00:41:54;100540.53;;;-1.99;100.00
12536;BME280;6334;48.696;2.114;2022-12-18T00:44:42;100539.28;;;-1.88;100.00
12536;BME280;6334;48.696;2.114;2022-12-18T00:47:14;100538.00;;;-1.48;100.00
12536;BME280;6334;48.696;2.114;2022-12-18T00:50:25;100480.19;;;-1.78;100.00
12536;BME280;6334;48.696;2.114;2022-12-18T00:53:05;100548.02;;;-1.62;100.00
12536;BME280;6334;48.696;2.114;2022-12-18T00:55:37;100550.62;;;-2.09;100.00
12536;BME280;6334;48.696;2.114;2022-12-18T01:00:55;100544.45;;;-2.19;100.00
12536;BME280;6334;48.696;2.114;2022-12-18T01:03:27;100540.08;;;-1.75;100.00
12536;BME280;6334;48.696;2.114;2022-12-18T01:06:05;100530.89;;;-1.86;100.00
12536;BME280;6334;48.696;2.114;2022-12-18T01:08:34;100531.44;;;-1.88;100.00
12536;BME280;6334;48.696;2.114;2022-12-18T01:11:08;100525.81;;;-2.11;100.00
12536;BME280;6334;48.696;2.114;2022-12-18T01:13:40;100529.01;;;-2.04;100.00
12536;BME280;6334;48.696;2.114;2022-12-18T01:16:13;100526.13;;;-2.29;100.00
12536;BME280;6334;48.696;2.114;2022-12-18T01:18:45;100533.08;;;-1.70;100.00
12536;BME280;6334;48.696;2.114;2022-12-18T01:21:23;100526.64;;;-1.89;100.00
12536;BME280;6334;48.696;2.114;2022-12-18T01:23:59;100529.00;;;-1.66;100.00
12536;BME280;6334;48.696;2.114;2022-12-18T01:26:29;100527.55;;;-2.07;100.00
12536;BME280;6334;48.696;2.114;2022-12-18T01:28:59;100532.00;;;-1.97;100.00
12536;BME280;6334;48.696;2.114;2022-12-18T01:31:31;100532.94;;;-1.86;100.00
12536;BME280;6334;48.696;2.114;2022-12-18T01:34:01;100526.25;;;-1.69;100.00
12536;BME280;6334;48.696;2.114;2022-12-18T01:36:33;100526.22;;;-1.48;100.00
12536;BME280;6334;48.696;2.114;2022-12-18T01:39:13;100529.53;;;-1.74;100.00
12536;BME280;6334;48.696;2.114;2022-12-18T01:41:53;100527.23;;;-1.93;100.00
12536;BME280;6334;48.696;2.114;2022-12-18T01:47:47;100522.95;;;-2.15;100.00
12536;BME280;6334;48.696;2.114;2022-12-18T01:50:34;100518.97;;;-2.01;100.00
12536;BME280;6334;48.696;2.114;2022-12-18T01:53:20;100522.48;;;-2.16;100.00
12536;BME280;6334;48.696;2.114;2022-12-18T01:55:55;100522.70;;;-2.58;100.00
12536;BME280;6334;48.696;2.114;2022-12-18T01:58:41;100515.47;;;-1.84;100.00
12536;BME280;6334;48.696;2.114;2022-12-18T02:01:09;100512.52;;;-2.02;100.00
12536;BME280;6334;48.696;2.114;2022-12-18T02:03:43;100512.20;;;-1.99;100.00
12536;BME280;6334;48.696;2.114;2022-12-18T02:06:55;100450.55;;;-2.15;100.00
12536;BME280;6334;48.696;2.114;2022-12-18T02:09:07;100502.28;;;-2.36;100.00
12536;BME280;6334;48.696;2.114;2022-12-18T02:12:05;100505.63;;;-2.04;100.00
12536;BME280;6334;48.696;2.114;2022-12-18T02:15:05;100506.48;;;-2.09;100.00
12536;BME280;6334;48.696;2.114;2022-12-18T02:17:57;100505.06;;;-2.11;100.00
12536;BME280;6334;48.696;2.114;2022-12-18T02:20:33;100501.27;;;-2.37;100.00
12536;BME280;6334;48.696;2.114;2022-12-18T02:28:36;100497.89;;;-2.49;100.00
12536;BME280;6334;48.696;2.114;2022-12-18T02:31:04;100489.75;;;-2.53;100.00
12536;BME280;6334;48.696;2.114;2022-12-18T02:33:34;100487.16;;;-2.12;100.00
12536;BME280;6334;48.696;2.114;2022-12-18T02:36:18;100483.88;;;-2.35;100.00
12536;BME280;6334;48.696;2.114;2022-12-18T02:38:49;100476.33;;;-2.03;100.00
12536;BME280;6334;48.696;2.114;2022-12-18T02:41:19;100468.39;;;-2.33;100.00
12536;BME280;6334;48.696;2.114;2022-12-18T02:43:59;100476.53;;;-2.09;100.00
12536;BME280;6334;48.696;2.114;2022-12-18T02:46:35;100470.66;;;-2.14;100.00
12536;BME280;6334;48.696;2.114;2022-12-18T02:51:52;100471.28;;;-1.74;100.00
12536;BME280;6334;48.696;2.114;2022-12-18T02:54:26;100470.89;;;-2.26;100.00
12536;BME280;6334;48.696;2.114;2022-12-18T02:56:54;100469.47;;;-2.34;100.00
12536;BME280;6334;48.696;2.114;2022-12-18T02:59:38;100469.55;;;-2.07;100.00
12536;BME280;6334;48.696;2.114;2022-12-18T03:02:12;100465.91;;;-1.99;100.00
12536;BME280;6334;48.696;2.114;2022-12-18T03:04:53;100466.25;;;-2.12;100.00
12536;BME280;6334;48.696;2.114;2022-12-18T03:07:27;100464.60;;;-2.06;100.00
12536;BME280;6334;48.696;2.114;2022-12-18T03:09:47;100465.95;;;-2.06;100.00
12536;BME280;6334;48.696;2.114;2022-12-18T03:12:21;100465.75;;;-2.03;100.00
12536;BME280;6334;48.696;2.114;2022-12-18T03:15:16;100466.23;;;-2.02;100.00
12536;BME280;6334;48.696;2.114;2022-12-18T03:17:57;100472.29;;;-2.25;100.00
12536;BME280;6334;48.696;2.114;2022-12-18T03:20:27;100473.23;;;-1.92;100.00
12536;BME280;6334;48.696;2.114;2022-12-18T03:23:11;100231.13;;;-3.78;100.00
12536;BME280;6334;48.696;2.114;2022-12-18T03:25:41;100469.09;;;-2.33;100.00
12536;BME280;6334;48.696;2.114;2022-12-18T03:28:29;100287.83;;;-3.54;100.00
12536;BME280;6334;48.696;2.114;2022-12-18T03:31:02;100463.90;;;-2.28;100.00
12536;BME280;6334;48.696;2.114;2022-12-18T03:33:45;100460.34;;;-2.30;100.00
12536;BME280;6334;48.696;2.114;2022-12-18T03:36:13;100468.79;;;-2.14;100.00
12536;BME280;6334;48.696;2.114;2022-12-18T03:42:07;100455.09;;;-2.69;100.00
12536;BME280;6334;48.696;2.114;2022-12-18T03:50:17;100446.83;;;-2.40;100.00
12536;BME280;6334;48.696;2.114;2022-12-18T03:52:57;100446.75;;;-2.08;100.00
12536;BME280;6334;48.696;2.114;2022-12-18T03:55:20;100441.11;;;-2.07;100.00
12536;BME280;6334;48.696;2.114;2022-12-18T03:57:53;100441.48;;;-2.49;100.00
12536;BME280;6334;48.696;2.114;2022-12-18T04:00:23;100439.40;;;-2.45;100.00
12536;BME280;6334;48.696;2.114;2022-12-18T04:02:53;100444.91;;;-2.15;100.00
12536;BME280;6334;48.696;2.114;2022-12-18T04:05:34;100445.45;;;-2.51;100.00
12536;BME280;6334;48.696;2.114;2022-12-18T04:08:09;100438.62;;;-2.13;100.00
12536;BME280;6334;48.696;2.114;2022-12-18T04:10:38;100432.64;;;-2.03;100.00
12536;BME280;6334;48.696;2.114;2022-12-18T04:13:08;100440.30;;;-2.51;100.00
12536;BME280;6334;48.696;2.114;2022-12-18T04:15:41;100436.59;;;-2.31;100.00
12536;BME280;6334;48.696;2.114;2022-12-18T04:18:13;100430.79;;;-2.30;100.00
12536;BME280;6334;48.696;2.114;2022-12-18T04:20:48;100427.08;;;-2.13;100.00
12536;BME280;6334;48.696;2.114;2022-12-18T04:23:23;100426.48;;;-2.13;100.00
12536;BME280;6334;48.696;2.114;2022-12-18T04:25:52;100410.52;;;-2.02;100.00
12536;BME280;6334;48.696;2.114;2022-12-18T04:28:32;100420.73;;;-2.16;100.00
12536;BME280;6334;48.696;2.114;2022-12-18T04:31:05;100429.87;;;-2.13;100.00
12536;BME280;6334;48.696;2.114;2022-12-18T04:33:36;100419.97;;;-2.53;100.00
12536;BME280;6334;48.696;2.114;2022-12-18T04:36:25;100433.67;;;-2.16;100.00
12536;BME280;6334;48.696;2.114;2022-12-18T04:38:55;100433.45;;;-2.00;100.00
12536;BME280;6334;48.696;2.114;2022-12-18T04:41:26;100434.03;;;-1.97;100.00
12536;BME280;6334;48.696;2.114;2022-12-18T04:43:59;100437.27;;;-2.19;100.00
12536;BME280;6334;48.696;2.114;2022-12-18T04:46:30;100439.08;;;-2.02;100.00
12536;BME280;6334;48.696;2.114;2022-12-18T04:49:08;100440.17;;;-2.40;100.00
12536;BME280;6334;48.696;2.114;2022-12-18T04:51:39;100434.40;;;-2.74;100.00
12536;BME280;6334;48.696;2.114;2022-12-18T04:54:09;100432.47;;;-1.95;100.00
12536;BME280;6334;48.696;2.114;2022-12-18T04:56:40;100430.81;;;-2.42;100.00
12536;BME280;6334;48.696;2.114;2022-12-18T04:59:13;100437.27;;;-2.20;100.00
12536;BME280;6334;48.696;2.114;2022-12-18T05:01:43;100440.66;;;-2.35;100.00
12536;BME280;6334;48.696;2.114;2022-12-18T05:04:13;100445.52;;;-2.29;100.00
12536;BME280;6334;48.696;2.114;2022-12-18T05:06:55;100454.19;;;-2.04;100.00
12536;BME280;6334;48.696;2.114;2022-12-18T05:09:25;100447.11;;;-1.96;100.00
12536;BME280;6334;48.696;2.114;2022-12-18T05:11:58;100454.77;;;-2.06;100.00
12536;BME280;6334;48.696;2.114;2022-12-18T05:14:37;100450.87;;;-2.47;100.00
12536;BME280;6334;48.696;2.114;2022-12-18T05:17:09;100447.48;;;-1.93;100.00
12536;BME280;6334;48.696;2.114;2022-12-18T05:20:04;100454.78;;;-2.24;100.00
12536;BME280;6334;48.696;2.114;2022-12-18T05:22:34;100457.84;;;-2.21;100.00
12536;BME280;6334;48.696;2.114;2022-12-18T05:25:12;100468.94;;;-2.19;100.00
12536;BME280;6334;48.696;2.114;2022-12-18T05:27:44;100475.52;;;-2.06;100.00
12536;BME280;6334;48.696;2.114;2022-12-18T05:30:14;100476.95;;;-1.91;100.00
12536;BME280;6334;48.696;2.114;2022-12-18T05:32:44;100475.58;;;-2.02;100.00
12536;BME280;6334;48.696;2.114;2022-12-18T05:35:14;100481.63;;;-1.90;100.00
12536;BME280;6334;48.696;2.114;2022-12-18T05:37:46;100473.86;;;-2.03;100.00
12536;BME280;6334;48.696;2.114;2022-12-18T05:40:16;100468.84;;;-2.07;100.00
12536;BME280;6334;48.696;2.114;2022-12-18T05:42:46;100445.70;;;-2.36;100.00
12536;BME280;6334;48.696;2.114;2022-12-18T05:45:17;100443.59;;;-3.01;100.00
12536;BME280;6334;48.696;2.114;2022-12-18T05:47:46;100432.25;;;-2.71;100.00
12536;BME280;6334;48.696;2.114;2022-12-18T05:50:20;100430.67;;;-2.19;100.00
12536;BME280;6334;48.696;2.114;2022-12-18T05:52:50;100423.08;;;-2.70;100.00
12536;BME280;6334;48.696;2.114;2022-12-18T05:55:22;100423.31;;;-2.36;100.00
12536;BME280;6334;48.696;2.114;2022-12-18T05:57:52;100416.28;;;-2.78;100.00
12536;BME280;6334;48.696;2.114;2022-12-18T06:00:22;100426.75;;;-2.13;100.00
12536;BME280;6334;48.696;2.114;2022-12-18T06:02:52;100426.80;;;-2.34;100.00
12536;BME280;6334;48.696;2.114;2022-12-18T06:05:26;100427.23;;;-2.68;100.00
12536;BME280;6334;48.696;2.114;2022-12-18T06:07:56;100428.73;;;-2.16;100.00
12536;BME280;6334;48.696;2.114;2022-12-18T06:10:31;100428.06;;;-2.57;100.00
12536;BME280;6334;48.696;2.114;2022-12-18T06:13:01;100428.29;;;-2.24;100.00
12536;BME280;6334;48.696;2.114;2022-12-18T06:15:32;100423.45;;;-2.24;100.00
12536;BME280;6334;48.696;2.114;2022-12-18T06:18:06;100430.27;;;-2.26;100.00
12536;BME280;6334;48.696;2.114;2022-12-18T06:20:36;100435.75;;;-1.99;100.00
12536;BME280;6334;48.696;2.114;2022-12-18T06:23:06;100438.27;;;-2.03;100.00
12536;BME280;6334;48.696;2.114;2022-12-18T06:25:37;100437.31;;;-2.43;100.00
12536;BME280;6334;48.696;2.114;2022-12-18T06:28:06;100434.09;;;-2.24;100.00
12536;BME280;6334;48.696;2.114;2022-12-18T06:30:39;100440.59;;;-2.55;100.00
12536;BME280;6334;48.696;2.114;2022-12-18T06:33:11;100453.95;;;-2.46;100.00
12536;BME280;6334;48.696;2.114;2022-12-18T06:35:41;100450.20;;;-2.04;100.00
12536;BME280;6334;48.696;2.114;2022-12-18T06:38:13;100445.95;;;-2.08;100.00
12536;BME280;6334;48.696;2.114;2022-12-18T06:40:43;100449.61;;;-2.26;100.00
12536;BME280;6334;48.696;2.114;2022-12-18T06:43:16;100450.64;;;-2.00;100.00
12536;BME280;6334;48.696;2.114;2022-12-18T06:45:46;100443.94;;;-2.19;100.00
12536;BME280;6334;48.696;2.114;2022-12-18T06:48:16;100427.91;;;-2.29;100.00
12536;BME280;6334;48.696;2.114;2022-12-18T06:50:48;100410.41;;;-2.37;100.00
12536;BME280;6334;48.696;2.114;2022-12-18T06:53:21;100423.63;;;-2.08;100.00
12536;BME280;6334;48.696;2.114;2022-12-18T06:55:50;100414.59;;;-2.43;100.00
12536;BME280;6334;48.696;2.114;2022-12-18T06:58:20;100403.22;;;-2.29;100.00
12536;BME280;6334;48.696;2.114;2022-12-18T07:00:59;100400.20;;;-2.15;100.00
12536;BME280;6334;48.696;2.114;2022-12-18T07:03:27;100401.64;;;-2.55;100.00
12536;BME280;6334;48.696;2.114;2022-12-18T07:05:57;100401.40;;;-1.97;100.00
12536;BME280;6334;48.696;2.114;2022-12-18T07:08:31;100393.14;;;-2.44;100.00
12536;BME280;6334;48.696;2.114;2022-12-18T07:11:05;100398.70;;;-2.72;100.00
12536;BME280;6334;48.696;2.114;2022-12-18T07:13:38;100391.50;;;-2.72;100.00
12536;BME280;6334;48.696;2.114;2022-12-18T07:16:09;100388.91;;;-2.35;100.00
12536;BME280;6334;48.696;2.114;2022-12-18T07:18:39;100392.26;;;-2.50;100.00
12536;BME280;6334;48.696;2.114;2022-12-18T07:21:10;100403.22;;;-2.69;100.00
12536;BME280;6334;48.696;2.114;2022-12-18T07:23:39;100398.38;;;-2.04;100.00
12536;BME280;6334;48.696;2.114;2022-12-18T07:26:10;100402.86;;;-2.01;100.00
12536;BME280;6334;48.696;2.114;2022-12-18T07:28:48;100195.09;;;-3.52;100.00
12536;BME280;6334;48.696;2.114;2022-12-18T07:31:19;100398.81;;;-2.11;100.00
12536;BME280;6334;48.696;2.114;2022-12-18T07:33:51;100399.09;;;-2.83;100.00
12536;BME280;6334;48.696;2.114;2022-12-18T07:36:22;100405.94;;;-2.12;100.00
12536;BME280;6334;48.696;2.114;2022-12-18T07:38:52;100409.67;;;-2.49;100.00
12536;BME280;6334;48.696;2.114;2022-12-18T07:41:24;100409.89;;;-2.52;100.00
12536;BME280;6334;48.696;2.114;2022-12-18T07:43:54;100413.91;;;-2.09;100.00
12536;BME280;6334;48.696;2.114;2022-12-18T07:46:24;100416.38;;;-2.35;100.00
12536;BME280;6334;48.696;2.114;2022-12-18T07:48:54;100417.67;;;-2.09;100.00
12536;BME280;6334;48.696;2.114;2022-12-18T07:51:25;100412.83;;;-2.14;100.00
12536;BME280;6334;48.696;2.114;2022-12-18T07:53:56;100409.98;;;-2.12;100.00
12536;BME280;6334;48.696;2.114;2022-12-18T07:56:26;100406.77;;;-2.09;100.00
12536;BME280;6334;48.696;2.114;2022-12-18T07:59:02;100405.40;;;-2.22;100.00
12536;BME280;6334;48.696;2.114;2022-12-18T08:01:32;100411.52;;;-1.86;100.00
12536;BME280;6334;48.696;2.114;2022-12-18T08:04:32;100397.65;;;-2.30;100.00
12536;BME280;6334;48.696;2.114;2022-12-18T08:07:11;100412.59;;;-2.59;100.00
12536;BME280;6334;48.696;2.114;2022-12-18T08:09:41;100415.13;;;-2.20;100.00
12536;BME280;6334;48.696;2.114;2022-12-18T08:12:27;100427.39;;;-2.34;100.00
12536;BME280;6334;48.696;2.114;2022-12-18T08:14:56;100431.25;;;-2.26;100.00
12536;BME280;6334;48.696;2.114;2022-12-18T08:17:54;100388.81;;;-2.71;100.00
12536;BME280;6334;48.696;2.114;2022-12-18T08:20:22;100419.45;;;-2.01;100.00
12536;BME280;6334;48.696;2.114;2022-12-18T08:23:20;100214.48;;;-3.34;100.00
12536;BME280;6334;48.696;2.114;2022-12-18T08:27:06;100417.38;;;-2.25;100.00
12536;BME280;6334;48.696;2.114;2022-12-18T08:29:36;100431.91;;;-2.32;100.00
12536;BME280;6334;48.696;2.114;2022-12-18T08:32:42;100436.42;;;-2.62;100.00
12536;BME280;6334;48.696;2.114;2022-12-18T08:35:19;100438.25;;;-2.19;100.00
12536;BME280;6334;48.696;2.114;2022-12-18T08:40:07;100449.95;;;-2.21;100.00
12536;BME280;6334;48.696;2.114;2022-12-18T08:42:39;100447.94;;;0.20;100.00
12536;BME280;6334;48.696;2.114;2022-12-18T08:45:27;100439.05;;;-1.35;100.00
12536;BME280;6334;48.696;2.114;2022-12-18T08:47:59;100440.69;;;-1.53;100.00
12536;BME280;6334;48.696;2.114;2022-12-18T08:50:35;100438.86;;;-2.24;100.00
12536;BME280;6334;48.696;2.114;2022-12-18T08:53:08;100440.73;;;-2.61;100.00
12536;BME280;6334;48.696;2.114;2022-12-18T08:55:38;100440.48;;;-2.37;100.00
12536;BME280;6334;48.696;2.114;2022-12-18T08:58:11;100432.83;;;0.66;100.00
12536;BME280;6334;48.696;2.114;2022-12-18T09:00:43;100427.48;;;-1.44;100.00
12536;BME280;6334;48.696;2.114;2022-12-18T09:11:40;100436.64;;;-1.43;100.00
12536;BME280;6334;48.696;2.114;2022-12-18T09:14:23;100304.47;;;-2.32;100.00
12536;BME280;6334;48.696;2.114;2022-12-18T09:16:54;100429.93;;;-1.66;100.00
12536;BME280;6334;48.696;2.114;2022-12-18T09:22:46;100414.42;;;-1.89;100.00
12536;BME280;6334;48.696;2.114;2022-12-18T09:30:23;100443.13;;;-1.89;100.00
12536;BME280;6334;48.696;2.114;2022-12-18T09:32:53;100433.78;;;-1.76;100.00
12536;BME280;6334;48.696;2.114;2022-12-18T09:37:21;100169.84;;;-3.19;100.00
12536;BME280;6334;48.696;2.114;2022-12-18T09:42:06;100433.09;;;-1.71;100.00
12536;BME280;6334;48.696;2.114;2022-12-18T09:45:42;100386.77;;;-1.58;100.00
12536;BME280;6334;48.696;2.114;2022-12-18T09:48:18;100427.90;;;-2.07;100.00
12536;BME280;6334;48.696;2.114;2022-12-18T09:50:46;100430.41;;;-1.37;100.00
12536;BME280;6334;48.696;2.114;2022-12-18T09:53:22;100424.90;;;-1.87;100.00
12536;BME280;6334;48.696;2.114;2022-12-18T10:09:25;100125.48;;;-2.98;100.00
12536;BME280;6334;48.696;2.114;2022-12-18T10:18:10;100430.56;;;-0.88;100.00
12536;BME280;6334;48.696;2.114;2022-12-18T10:23:39;100222.41;;;-2.37;100.00
12536;BME280;6334;48.696;2.114;2022-12-18T10:26:21;100417.61;;;-0.97;100.00
12536;BME280;6334;48.696;2.114;2022-12-18T10:30:24;100405.67;;;-1.25;100.00
12536;BME280;6334;48.696;2.114;2022-12-18T10:33:29;100418.02;;;-1.07;100.00
12536;BME280;6334;48.696;2.114;2022-12-18T10:35:58;100409.09;;;-1.08;100.00
12536;BME280;6334;48.696;2.114;2022-12-18T10:44:40;100045.95;;;-3.15;100.00
12536;BME280;6334;48.696;2.114;2022-12-18T10:47:17;100407.05;;;-0.78;100.00
12536;BME280;6334;48.696;2.114;2022-12-18T10:49:49;100401.88;;;-0.78;100.00
12536;BME280;6334;48.696;2.114;2022-12-18T10:53:00;100411.56;;;-0.62;100.00
12536;BME280;6334;48.696;2.114;2022-12-18T10:55:35;100397.50;;;-0.77;100.00
12536;BME280;6334;48.696;2.114;2022-12-18T11:03:42;100408.55;;;-0.62;100.00
12536;BME280;6334;48.696;2.114;2022-12-18T11:06:14;100398.56;;;-0.46;100.00
12536;BME280;6334;48.696;2.114;2022-12-18T11:18:01;100126.85;;;-1.87;100.00
12536;BME280;6334;48.696;2.114;2022-12-18T11:20:32;100377.88;;;-0.58;100.00
12536;BME280;6334;48.696;2.114;2022-12-18T11:27:28;100377.68;;;-0.17;100.00
12536;BME280;6334;48.696;2.114;2022-12-18T11:30:37;100375.23;;;-0.22;100.00
12536;BME280;6334;48.696;2.114;2022-12-18T11:34:34;100371.20;;;-0.15;100.00
12536;BME280;6334;48.696;2.114;2022-12-18T11:37:13;100105.52;;;-1.68;100.00
12536;BME280;6334;48.696;2.114;2022-12-18T11:40:35;100327.30;;;-0.47;100.00
12536;BME280;6334;48.696;2.114;2022-12-18T11:46:10;100356.31;;;-0.15;100.00
12536;BME280;6334;48.696;2.114;2022-12-18T11:50:28;100346.48;;;0.23;100.00
12536;BME280;6334;48.696;2.114;2022-12-18T11:53:34;100279.97;;;-0.37;100.00
12536;BME280;6334;48.696;2.114;2022-12-18T11:56:27;100157.90;;;-0.96;100.00
12536;BME280;6334;48.696;2.114;2022-12-18T12:09:10;100248.98;;;-0.45;100.00
12536;BME280;6334;48.696;2.114;2022-12-18T12:11:50;100319.59;;;0.12;100.00
12536;BME280;6334;48.696;2.114;2022-12-18T12:15:12;100095.13;;;-1.21;100.00
12536;BME280;6334;48.696;2.114;2022-12-18T12:20:53;100310.69;;;0.25;100.00
12536;BME280;6334;48.696;2.114;2022-12-18T12:23:51;100251.09;;;0.05;100.00
12536;BME280;6334;48.696;2.114;2022-12-18T12:26:44;100304.31;;;0.62;100.00
12536;BME280;6334;48.696;2.114;2022-12-18T12:29:26;100302.13;;;0.65;100.00
12536;BME280;6334;48.696;2.114;2022-12-18T12:32:16;100183.22;;;0.02;100.00
12536;BME280;6334;48.696;2.114;2022-12-18T12:40:44;100166.63;;;-0.05;100.00
12536;BME280;6334;48.696;2.114;2022-12-18T12:43:57;100316.56;;;0.48;100.00
12536;BME280;6334;48.696;2.114;2022-12-18T12:46:28;100311.45;;;0.39;100.00
12536;BME280;6334;48.696;2.114;2022-12-18T12:49:03;100312.41;;;0.46;100.00
12536;BME280;6334;48.696;2.114;2022-12-18T12:54:14;100175.06;;;-0.19;100.00
12536;BME280;6334;48.696;2.114;2022-12-18T12:57:37;100302.09;;;0.62;100.00
12536;BME280;6334;48.696;2.114;2022-12-18T13:00:36;100298.19;;;0.73;100.00
12536;BME280;6334;48.696;2.114;2022-12-18T13:03:27;100292.40;;;0.60;100.00
12536;BME280;6334;48.696;2.114;2022-12-18T13:05:53;100286.73;;;0.65;100.00
12536;BME280;6334;48.696;2.114;2022-12-18T13:08:50;100215.70;;;0.21;100.00
12536;BME280;6334;48.696;2.114;2022-12-18T13:11:04;100284.87;;;0.57;100.00
12536;BME280;6334;48.696;2.114;2022-12-18T13:13:53;100284.87;;;0.85;100.00
12536;BME280;6334;48.696;2.114;2022-12-18T13:16:25;100273.92;;;0.66;100.00
12536;BME280;6334;48.696;2.114;2022-12-18T13:18:55;100262.75;;;0.93;100.00
12536;BME280;6334;48.696;2.114;2022-12-18T13:21:41;100275.83;;;0.78;100.00
12536;BME280;6334;48.696;2.114;2022-12-18T13:24:26;100273.58;;;0.85;100.00
12536;BME280;6334;48.696;2.114;2022-12-18T13:26:46;100260.67;;;1.10;100.00
12536;BME280;6334;48.696;2.114;2022-12-18T13:36:33;100267.95;;;1.15;100.00
12536;BME280;6334;48.696;2.114;2022-12-18T13:39:54;100256.48;;;0.93;100.00
12536;BME280;6334;48.696;2.114;2022-12-18T13:45:15;100246.38;;;0.93;100.00
12536;BME280;6334;48.696;2.114;2022-12-18T13:48:39;100081.13;;;0.19;100.00
12536;BME280;6334;48.696;2.114;2022-12-18T13:53:51;100230.16;;;1.20;100.00
12536;BME280;6334;48.696;2.114;2022-12-18T13:56:26;100225.93;;;1.22;100.00
12536;BME280;6334;48.696;2.114;2022-12-18T14:00:31;100219.48;;;1.15;100.00
12536;BME280;6334;48.696;2.114;2022-12-18T14:03:15;100217.45;;;1.17;100.00
12536;BME280;6334;48.696;2.114;2022-12-18T14:05:43;100216.91;;;1.21;100.00
12536;BME280;6334;48.696;2.114;2022-12-18T14:11:18;100063.14;;;0.32;100.00
12536;BME280;6334;48.696;2.114;2022-12-18T14:13:54;100221.38;;;1.34;100.00
12536;BME280;6334;48.696;2.114;2022-12-18T14:16:24;100221.92;;;1.33;100.00
12536;BME280;6334;48.696;2.114;2022-12-18T14:21:18;100220.07;;;1.48;100.00
12536;BME280;6334;48.696;2.114;2022-12-18T14:26:42;100227.70;;;1.18;100.00
12536;BME280;6334;48.696;2.114;2022-12-18T14:29:29;100222.08;;;1.26;100.00
12536;BME280;6334;48.696;2.114;2022-12-18T14:32:11;100217.75;;;1.41;100.00
12536;BME280;6334;48.696;2.114;2022-12-18T14:35:00;100231.89;;;1.42;100.00
12536;BME280;6334;48.696;2.114;2022-12-18T14:37:32;100223.71;;;1.53;100.00
12536;BME280;6334;48.696;2.114;2022-12-18T14:40:24;100188.46;;;1.23;100.00
12536;BME280;6334;48.696;2.114;2022-12-18T14:43:26;100178.82;;;1.18;100.00
12536;BME280;6334;48.696;2.114;2022-12-18T14:46:52;100204.41;;;1.33;100.00
12536;BME280;6334;48.696;2.114;2022-12-18T14:49:38;100218.00;;;1.76;100.00
12536;BME280;6334;48.696;2.114;2022-12-18T14:52:31;100199.02;;;1.60;100.00
12536;BME280;6334;48.696;2.114;2022-12-18T14:57:36;100208.14;;;1.36;100.00
12536;BME280;6334;48.696;2.114;2022-12-18T15:00:06;100017.31;;;0.30;100.00
12536;BME280;6334;48.696;2.114;2022-12-18T15:02:34;100212.02;;;1.47;100.00
12536;BME280;6334;48.696;2.114;2022-12-18T15:09:39;100206.26;;;1.60;100.00
12536;BME280;6334;48.696;2.114;2022-12-18T15:16:43;100201.62;;;1.56;100.00
12536;BME280;6334;48.696;2.114;2022-12-18T15:27:29;100186.66;;;1.64;100.00
12536;BME280;6334;48.696;2.114;2022-12-18T15:33:38;100174.32;;;1.71;100.00
12536;BME280;6334;48.696;2.114;2022-12-18T15:41:51;99923.02;;;0.08;100.00
12536;BME280;6334;48.696;2.114;2022-12-18T15:44:44;100159.72;;;1.39;100.00
12536;BME280;6334;48.696;2.114;2022-12-18T15:50:14;100157.27;;;1.44;100.00
12536;BME280;6334;48.696;2.114;2022-12-18T15:52:47;100150.26;;;1.52;100.00
12536;BME280;6334;48.696;2.114;2022-12-18T15:55:25;100152.55;;;1.48;100.00
12536;BME280;6334;48.696;2.114;2022-12-18T16:04:19;100172.23;;;1.66;100.00
12536;BME280;6334;48.696;2.114;2022-12-18T16:07:04;100158.96;;;1.77;100.00
12536;BME280;6334;48.696;2.114;2022-12-18T16:09:38;100156.86;;;1.76;100.00
12536;BME280;6334;48.696;2.114;2022-12-18T16:12:19;100154.91;;;1.74;100.00
12536;BME280;6334;48.696;2.114;2022-12-18T16:15:28;99986.27;;;0.85;100.00
12536;BME280;6334;48.696;2.114;2022-12-18T16:26:52;100155.80;;;1.84;100.00
12536;BME280;6334;48.696;2.114;2022-12-18T16:29:26;100145.83;;;1.80;100.00
12536;BME280;6334;48.696;2.114;2022-12-18T16:32:11;99930.75;;;0.34;100.00
12536;BME280;6334;48.696;2.114;2022-12-18T16:36:31;100159.23;;;1.83;100.00
12536;BME280;6334;48.696;2.114;2022-12-18T16:39:16;99980.13;;;0.76;100.00
12536;BME280;6334;48.696;2.114;2022-12-18T16:41:47;100140.95;;;1.86;100.00
12536;BME280;6334;48.696;2.114;2022-12-18T16:44:22;100135.30;;;1.96;100.00
12536;BME280;6334;48.696;2.114;2022-12-18T16:47:04;100068.56;;;1.60;100.00
12536;BME280;6334;48.696;2.114;2022-12-18T16:50:53;99838.56;;;0.32;100.00
12536;BME280;6334;48.696;2.114;2022-12-18T16:53:21;100119.91;;;1.92;100.00
12536;BME280;6334;48.696;2.114;2022-12-18T16:56:42;99953.31;;;1.04;100.00
12536;BME280;6334;48.696;2.114;2022-12-18T16:59:40;100106.77;;;1.72;100.00
12536;BME280;6334;48.696;2.114;2022-12-18T17:05:49;100058.17;;;1.73;100.00
12536;BME280;6334;48.696;2.114;2022-12-18T17:08:45;100119.79;;;2.04;100.00